createdAt,value
2023-05-02T00:01:35.065Z,100451.14
2023-05-02T00:03:49.577Z,100450.96
2023-05-02T00:05:59.515Z,100454.98
2023-05-02T00:08:12.316Z,100456.30
2023-05-02T00:10:41.609Z,100468.92
2023-05-02T00:12:54.308Z,100476.40
2023-05-02T00:15:24.172Z,100474.20
2023-05-02T00:17:33.497Z,100468.34
2023-05-02T00:19:43.821Z,100473.14
2023-05-02T00:21:53.463Z,100473.53
2023-05-02T00:24:05.571Z,100474.55
2023-05-02T00:26:35.419Z,100469.83
2023-05-02T00:28:45.480Z,100474.19
2023-05-02T00:31:14.940Z,100465.98
2023-05-02T00:33:27.350Z,100464.48
2023-05-02T00:35:38.428Z,100474.51
2023-05-02T00:37:47.693Z,100479.17
2023-05-02T00:39:57.492Z,100477.77
2023-05-02T00:42:16.979Z,100478.57
2023-05-02T00:44:26.389Z,100479.84
2023-05-02T00:46:36.333Z,100475.44
2023-05-02T00:49:06.131Z,100472.61
2023-05-02T00:51:16.789Z,100473.70
2023-05-02T00:53:46.579Z,100470.39
2023-05-02T00:56:00.070Z,100465.58
2023-05-02T00:58:21.982Z,100469.69
2023-05-02T01:00:38.771Z,100471.35
2023-05-02T01:02:55.430Z,100466.93
2023-05-02T01:05:12.196Z,100462.90
2023-05-02T01:07:49.302Z,100466.28
2023-05-02T01:10:25.829Z,100454.71
2023-05-02T01:12:46.908Z,100455.91
2023-05-02T01:15:04.348Z,100455.75
2023-05-02T01:17:36.365Z,100445.33
2023-05-02T01:19:49.635Z,100446.81
2023-05-02T01:22:02.230Z,100456.56
2023-05-02T01:24:21.848Z,100451.39
2023-05-02T01:26:41.626Z,100442.87
2023-05-02T01:28:59.866Z,100443.15
2023-05-02T01:31:11.647Z,100445.19
2023-05-02T01:33:23.542Z,100451.28
2023-05-02T01:35:34.744Z,100455.61
2023-05-02T01:37:47.531Z,100452.27
2023-05-02T01:40:09.347Z,100458.48
2023-05-02T01:42:25.554Z,100459.09
2023-05-02T01:44:44.921Z,100462.61
2023-05-02T01:47:07.031Z,100463.23
2023-05-02T01:49:18.237Z,100451.05
2023-05-02T01:51:34.174Z,100437.78
2023-05-02T01:53:48.178Z,100437.43
2023-05-02T01:56:03.568Z,100445.55
2023-05-02T01:58:15.904Z,100460.05
2023-05-02T02:00:28.022Z,100456.30
2023-05-02T02:02:40.501Z,100447.64
2023-05-02T02:04:53.101Z,100443.96
2023-05-02T02:07:10.121Z,100445.33
2023-05-02T02:09:20.523Z,100447.10
2023-05-02T02:11:36.978Z,100441.69
2023-05-02T02:13:51.655Z,100445.58
2023-05-02T02:16:17.692Z,100439.06
2023-05-02T02:18:29.984Z,100425.58
2023-05-02T02:20:40.799Z,100417.40
2023-05-02T02:22:53.830Z,100403.36
2023-05-02T02:25:05.140Z,100399.29
2023-05-02T02:27:19.069Z,100399.05
2023-05-02T02:29:29.876Z,100400.52
2023-05-02T02:31:40.614Z,100417.01
2023-05-02T02:33:50.959Z,100431.64
2023-05-02T02:36:09.487Z,100436.69
2023-05-02T02:38:29.181Z,100429.93
2023-05-02T02:40:43.603Z,100431.52
2023-05-02T02:43:01.259Z,100436.02
2023-05-02T02:45:29.139Z,100436.60
2023-05-02T02:47:44.099Z,100436.92
2023-05-02T02:50:03.050Z,100438.41
2023-05-02T02:52:41.177Z,100435.98
2023-05-02T02:55:01.268Z,100429.37
2023-05-02T02:57:19.969Z,100416.06
2023-05-02T02:59:34.631Z,100410.38
2023-05-02T03:01:56.002Z,100411.10
2023-05-02T03:04:08.407Z,100412.78
2023-05-02T03:06:19.599Z,100422.08
2023-05-02T03:08:29.284Z,100433.58
2023-05-02T03:10:49.712Z,100442.34
2023-05-02T03:13:04.969Z,100448.16
2023-05-02T03:15:33.023Z,100433.20
2023-05-02T03:17:46.130Z,100421.08
2023-05-02T03:20:05.864Z,100442.75
2023-05-02T03:22:18.355Z,100461.81
2023-05-02T03:24:47.647Z,100463.46
2023-05-02T03:27:00.660Z,100462.44
2023-05-02T03:29:15.967Z,100468.27
2023-05-02T03:31:26.552Z,100476.60
2023-05-02T03:33:41.882Z,100485.65
2023-05-02T03:35:51.467Z,100494.55
2023-05-02T03:38:20.733Z,100495.64
2023-05-02T03:40:33.644Z,100492.48
2023-05-02T03:42:44.103Z,100500.90
2023-05-02T03:45:01.596Z,100511.67
2023-05-02T03:47:15.094Z,100512.70
2023-05-02T03:49:24.806Z,100513.79
2023-05-02T03:51:37.760Z,100516.61
2023-05-02T03:53:48.161Z,100519.21
2023-05-02T03:55:58.087Z,100516.20
2023-05-02T03:58:21.329Z,100508.73
2023-05-02T04:00:30.734Z,100505.58
2023-05-02T04:02:42.044Z,100494.95
2023-05-02T04:04:54.616Z,100479.54
2023-05-02T04:07:05.721Z,100467.65
2023-05-02T04:09:15.282Z,100460.25
2023-05-02T04:11:33.905Z,100461.74
2023-05-02T04:13:44.114Z,100452.77
2023-05-02T04:15:53.886Z,100441.42
2023-05-02T04:18:05.587Z,100439.70
2023-05-02T04:20:19.346Z,100434.11
2023-05-02T04:22:42.462Z,100432.55
2023-05-02T04:24:52.481Z,100433.63
2023-05-02T04:27:02.140Z,100430.38
2023-05-02T04:29:11.620Z,100428.08
2023-05-02T04:31:21.383Z,100437.30
2023-05-02T04:33:30.766Z,100456.26
2023-05-02T04:35:45.140Z,100468.20
2023-05-02T04:37:56.149Z,100471.89
2023-05-02T04:40:12.000Z,100474.56
2023-05-02T04:42:21.885Z,100476.83
2023-05-02T04:44:38.786Z,100473.58
2023-05-02T04:46:48.587Z,100474.92
2023-05-02T04:49:01.441Z,100484.83
2023-05-02T04:51:15.609Z,100498.44
2023-05-02T04:53:29.763Z,100508.34
2023-05-02T04:55:39.086Z,100516.52
2023-05-02T04:57:48.580Z,100519.11
2023-05-02T04:59:59.332Z,100514.61
2023-05-02T05:02:09.615Z,100508.40
2023-05-02T05:04:19.355Z,100496.20
2023-05-02T05:06:29.828Z,100484.88
2023-05-02T05:08:39.366Z,100470.89
2023-05-02T05:10:49.594Z,100463.64
2023-05-02T05:12:59.612Z,100480.86
2023-05-02T05:15:10.437Z,100495.18
2023-05-02T05:17:21.285Z,100511.83
2023-05-02T05:19:30.963Z,100523.54
2023-05-02T05:21:40.597Z,100526.83
2023-05-02T05:23:50.841Z,100531.77
2023-05-02T05:26:15.579Z,100539.38
2023-05-02T05:28:27.791Z,100554.13
2023-05-02T05:30:40.481Z,100564.48
2023-05-02T05:32:53.504Z,100571.91
2023-05-02T05:35:06.303Z,100587.80
2023-05-02T05:37:19.378Z,100597.75
2023-05-02T05:39:29.174Z,100603.16
2023-05-02T05:41:40.291Z,100610.77
2023-05-02T05:43:52.198Z,100615.09
2023-05-02T05:46:11.321Z,100617.84
2023-05-02T05:48:21.191Z,100613.11
2023-05-02T05:50:31.241Z,100609.41
2023-05-02T05:52:43.685Z,100605.32
2023-05-02T05:54:55.248Z,100605.77
2023-05-02T05:57:05.090Z,100611.14
2023-05-02T05:59:18.598Z,100597.84
2023-05-02T06:01:27.894Z,100575.05
2023-05-02T06:03:37.697Z,100565.14
2023-05-02T06:05:47.393Z,100564.45
2023-05-02T06:07:57.402Z,100559.35
2023-05-02T06:10:07.687Z,100559.12
2023-05-02T06:12:17.842Z,100564.30
2023-05-02T06:14:28.252Z,100569.42
2023-05-02T06:16:42.824Z,100577.28
2023-05-02T06:18:54.253Z,100590.02
2023-05-02T06:21:09.403Z,100597.17
2023-05-02T06:23:21.828Z,100583.56
2023-05-02T06:25:34.386Z,100570.29
2023-05-02T06:27:43.791Z,100556.67
2023-05-02T06:30:04.537Z,100539.94
2023-05-02T06:32:13.817Z,100527.73
2023-05-02T06:34:26.128Z,100524.11
2023-05-02T06:36:46.310Z,100533.77
2023-05-02T06:38:56.385Z,100528.95
2023-05-02T06:41:08.854Z,100526.27
2023-05-02T06:43:18.549Z,100522.63
2023-05-02T06:45:28.147Z,100516.96
2023-05-02T06:47:37.937Z,100517.73
2023-05-02T06:49:47.175Z,100512.05
2023-05-02T06:51:56.528Z,100490.34
2023-05-02T06:54:10.228Z,100478.36
2023-05-02T06:56:19.619Z,100466.71
2023-05-02T06:58:28.947Z,100460.77
2023-05-02T07:00:41.366Z,100466.88
2023-05-02T07:02:51.237Z,100469.92
2023-05-02T07:05:00.636Z,100459.29
2023-05-02T07:07:09.837Z,100447.89
2023-05-02T07:09:39.352Z,100450.54
2023-05-02T07:11:51.640Z,100445.23
2023-05-02T07:14:01.390Z,100442.62
2023-05-02T07:16:11.746Z,100451.15
2023-05-02T07:18:21.792Z,100465.71
2023-05-02T07:20:33.838Z,100477.30
2023-05-02T07:22:46.607Z,100479.31
2023-05-02T07:25:03.438Z,100480.77
2023-05-02T07:27:16.278Z,100486.07
2023-05-02T07:29:28.667Z,100482.59
2023-05-02T07:31:38.766Z,100482.10
2023-05-02T07:33:48.249Z,100483.23
2023-05-02T07:35:57.590Z,100479.05
2023-05-02T07:38:07.149Z,100463.77
2023-05-02T07:40:25.845Z,100445.39
2023-05-02T07:42:35.561Z,100429.14
2023-05-02T07:44:47.766Z,100421.41
2023-05-02T07:47:00.387Z,100409.23
2023-05-02T07:49:09.925Z,100389.75
2023-05-02T07:51:23.319Z,100376.84
2023-05-02T07:53:33.510Z,100366.90
2023-05-02T07:55:42.707Z,100356.38
2023-05-02T07:57:52.197Z,100352.49
2023-05-02T08:00:02.051Z,100359.11
2023-05-02T08:02:24.434Z,100369.58
2023-05-02T08:04:45.256Z,100384.45
2023-05-02T08:06:54.655Z,100396.25
2023-05-02T08:09:07.110Z,100403.81
2023-05-02T08:11:21.969Z,100408.00
2023-05-02T08:13:30.341Z,100410.63
2023-05-02T08:15:39.988Z,100422.67
2023-05-02T08:17:53.111Z,100442.29
2023-05-02T08:20:02.995Z,100461.77
2023-05-02T08:22:15.488Z,100466.36
2023-05-02T08:24:24.786Z,100470.09
2023-05-02T08:26:34.526Z,100475.30
2023-05-02T08:28:43.759Z,100478.83
2023-05-02T08:30:56.600Z,100477.26
2023-05-02T08:33:06.177Z,100475.05
2023-05-02T08:35:18.591Z,100473.11
2023-05-02T08:37:27.744Z,100475.30
2023-05-02T08:39:38.443Z,100479.83
2023-05-02T08:41:56.916Z,100474.79
2023-05-02T08:44:07.977Z,100465.08
2023-05-02T08:46:19.719Z,100463.11
2023-05-02T08:48:33.507Z,100468.13
2023-05-02T08:50:44.916Z,100476.63
2023-05-02T08:52:57.958Z,100470.69
2023-05-02T08:55:08.414Z,100466.91
2023-05-02T08:57:30.797Z,100471.41
2023-05-02T08:59:40.105Z,100475.73
2023-05-02T09:01:56.959Z,100480.69
2023-05-02T09:04:17.494Z,100501.63
2023-05-02T09:06:28.596Z,100509.69
2023-05-02T09:08:38.586Z,100498.17
2023-05-02T09:10:48.672Z,100494.17
2023-05-02T09:12:58.572Z,100492.92
2023-05-02T09:15:20.580Z,100483.91
2023-05-02T09:17:40.395Z,100467.61
2023-05-02T09:20:05.553Z,100455.63
2023-05-02T09:22:27.165Z,100437.16
2023-05-02T09:24:40.024Z,100411.55
2023-05-02T09:27:01.364Z,100389.23
2023-05-02T09:29:13.097Z,100365.31
2023-05-02T09:33:35.313Z,100334.97
2023-05-02T09:35:57.374Z,100313.77
2023-05-02T09:38:22.597Z,100298.69
2023-05-02T09:40:34.821Z,100299.67
2023-05-02T09:42:43.995Z,100305.59
2023-05-02T09:45:24.116Z,100318.83
2023-05-02T09:47:33.872Z,100339.29
2023-05-02T09:49:47.122Z,100348.20
2023-05-02T09:52:18.081Z,100352.94
2023-05-02T09:54:40.702Z,100347.75
2023-05-02T09:56:59.822Z,100349.42
2023-05-02T09:59:20.425Z,100353.86
2023-05-02T10:04:35.480Z,100358.14
2023-05-02T10:06:45.419Z,100354.09
2023-05-02T10:08:54.656Z,100350.91
2023-05-02T10:11:06.778Z,100355.67
2023-05-02T10:13:18.334Z,100356.82
2023-05-02T10:15:31.308Z,100355.25
2023-05-02T10:17:47.125Z,100355.17
2023-05-02T10:20:02.434Z,100351.71
2023-05-02T10:22:12.794Z,100352.02
2023-05-02T10:24:22.787Z,100345.52
2023-05-02T10:26:32.602Z,100355.23
2023-05-02T10:28:43.122Z,100358.77
2023-05-02T10:30:53.603Z,100352.96
2023-05-02T10:33:04.775Z,100351.38
2023-05-02T10:35:14.441Z,100358.30
2023-05-02T10:37:24.760Z,100355.64
2023-05-02T10:39:35.654Z,100354.61
2023-05-02T10:41:45.658Z,100355.95
2023-05-02T10:43:54.708Z,100355.48
2023-05-02T10:46:04.327Z,100350.79
2023-05-02T10:48:21.342Z,100349.06
2023-05-02T10:50:47.704Z,100343.89
2023-05-02T10:52:56.882Z,100337.38
2023-05-02T10:55:24.083Z,100333.46
2023-05-02T10:57:33.432Z,100327.83
2023-05-02T10:59:43.260Z,100317.48
2023-05-02T11:01:52.508Z,100321.88
2023-05-02T11:04:02.978Z,100328.63
2023-05-02T11:06:12.614Z,100337.79
2023-05-02T11:08:36.683Z,100330.06
2023-05-02T11:10:46.667Z,100320.76
2023-05-02T11:12:56.521Z,100315.27
2023-05-02T11:15:07.082Z,100313.72
2023-05-02T11:17:16.959Z,100327.36
2023-05-02T11:19:26.013Z,100327.27
2023-05-02T11:21:39.420Z,100317.15
2023-05-02T11:23:48.646Z,100313.07
2023-05-02T11:26:00.946Z,100307.18
2023-05-02T11:28:30.950Z,100302.61
2023-05-02T11:30:48.982Z,100299.62
2023-05-02T11:33:17.979Z,100297.05
2023-05-02T11:35:28.294Z,100292.08
2023-05-02T11:37:37.787Z,100290.60
2023-05-02T11:39:47.302Z,100294.93
2023-05-02T11:41:56.505Z,100288.50
2023-05-02T11:44:09.180Z,100290.36
2023-05-02T11:46:20.572Z,100291.09
2023-05-02T11:48:30.359Z,100288.11
2023-05-02T11:50:49.640Z,100280.91
2023-05-02T11:53:00.509Z,100279.82
2023-05-02T11:55:13.631Z,100275.61
2023-05-02T11:57:23.108Z,100271.70
2023-05-02T11:59:32.489Z,100265.11
2023-05-02T12:01:51.345Z,100265.02
2023-05-02T12:04:08.004Z,100277.86
2023-05-02T12:06:20.349Z,100275.15
2023-05-02T12:08:31.708Z,100272.60
2023-05-02T12:10:41.270Z,100268.74
2023-05-02T12:12:50.198Z,100265.10
2023-05-02T12:14:59.674Z,100275.99
2023-05-02T12:17:10.817Z,100286.02
2023-05-02T12:19:20.005Z,100295.31
2023-05-02T12:21:30.418Z,100298.27
2023-05-02T12:23:42.585Z,100305.29
2023-05-02T12:25:51.939Z,100300.10
2023-05-02T12:28:07.713Z,100293.83
2023-05-02T12:30:30.796Z,100284.04
2023-05-02T12:32:45.770Z,100282.45
2023-05-02T12:34:54.959Z,100291.63
2023-05-02T12:37:04.442Z,100293.92
2023-05-02T12:39:14.694Z,100287.33
2023-05-02T12:41:32.590Z,100289.84
2023-05-02T12:43:52.743Z,100295.10
2023-05-02T12:46:16.949Z,100300.52
2023-05-02T12:48:27.506Z,100306.55
2023-05-02T12:50:42.944Z,100306.87
2023-05-02T12:52:57.799Z,100291.98
2023-05-02T12:55:20.858Z,100287.76
2023-05-02T12:57:30.891Z,100291.77
2023-05-02T12:59:41.170Z,100288.63
2023-05-02T13:01:50.538Z,100287.06
2023-05-02T13:03:59.720Z,100297.64
2023-05-02T13:06:09.623Z,100303.27
2023-05-02T13:08:18.714Z,100297.06
2023-05-02T13:10:28.524Z,100288.28
2023-05-02T13:12:38.644Z,100281.70
2023-05-02T13:14:47.602Z,100281.86
2023-05-02T13:16:56.872Z,100277.48
2023-05-02T13:19:06.202Z,100267.36
2023-05-02T13:21:15.267Z,100250.27
2023-05-02T13:23:27.103Z,100243.06
2023-05-02T13:25:36.522Z,100239.75
2023-05-02T13:27:46.468Z,100248.60
2023-05-02T13:29:55.701Z,100250.71
2023-05-02T13:32:05.129Z,100246.09
2023-05-02T13:34:14.174Z,100246.64
2023-05-02T13:36:24.904Z,100247.73
2023-05-02T13:38:35.103Z,100249.45
2023-05-02T13:40:44.486Z,100252.75
2023-05-02T13:42:53.724Z,100264.48
2023-05-02T13:45:05.454Z,100270.43
2023-05-02T13:47:14.614Z,100274.01
2023-05-02T13:49:23.667Z,100278.71
2023-05-02T13:51:33.712Z,100270.80
2023-05-02T13:53:42.958Z,100263.54
2023-05-02T13:55:52.172Z,100260.11
2023-05-02T13:58:01.982Z,100261.67
2023-05-02T14:00:13.455Z,100255.18
2023-05-02T14:02:24.160Z,100254.09
2023-05-02T14:04:33.652Z,100251.52
2023-05-02T14:06:42.775Z,100243.98
2023-05-02T14:08:52.618Z,100240.95
2023-05-02T14:11:02.453Z,100237.91
2023-05-02T14:13:11.585Z,100244.14
2023-05-02T14:15:21.274Z,100245.95
2023-05-02T14:17:30.345Z,100242.20
2023-05-02T14:19:39.452Z,100245.36
2023-05-02T14:21:48.655Z,100254.17
2023-05-02T14:23:57.878Z,100258.65
2023-05-02T14:26:07.566Z,100259.52
2023-05-02T14:28:16.688Z,100262.30
2023-05-02T14:30:25.706Z,100263.45
2023-05-02T14:32:35.668Z,100264.75
2023-05-02T14:34:44.921Z,100259.59
2023-05-02T14:36:54.022Z,100258.41
2023-05-02T14:39:03.568Z,100254.41
2023-05-02T14:41:13.562Z,100255.35
2023-05-02T14:43:22.781Z,100256.68
2023-05-02T14:45:32.124Z,100252.92
2023-05-02T14:47:41.986Z,100241.31
2023-05-02T14:49:51.231Z,100239.98
2023-05-02T14:52:00.536Z,100234.34
2023-05-02T14:54:09.951Z,100238.39
2023-05-02T14:56:19.127Z,100236.77
2023-05-02T14:58:28.337Z,100231.48
2023-05-02T15:00:39.747Z,100229.59
2023-05-02T15:02:49.057Z,100226.25
2023-05-02T15:04:58.268Z,100227.61
2023-05-02T15:07:07.733Z,100225.28
2023-05-02T15:09:18.406Z,100233.59
2023-05-02T15:11:28.022Z,100235.13
2023-05-02T15:13:37.420Z,100248.11
2023-05-02T15:15:48.152Z,100252.48
2023-05-02T15:17:57.240Z,100245.38
2023-05-02T15:20:06.926Z,100235.26
2023-05-02T15:22:18.667Z,100240.09
2023-05-02T15:24:28.217Z,100241.17
2023-05-02T15:26:38.766Z,100239.89
2023-05-02T15:28:47.845Z,100228.59
2023-05-02T15:30:57.229Z,100220.32
2023-05-02T15:33:07.495Z,100219.61
2023-05-02T15:35:16.751Z,100227.40
2023-05-02T15:37:26.029Z,100232.75
2023-05-02T15:39:35.207Z,100225.69
2023-05-02T15:41:48.007Z,100217.88
2023-05-02T15:43:58.453Z,100227.91
2023-05-02T15:46:07.833Z,100225.85
2023-05-02T15:48:16.992Z,100223.52
2023-05-02T15:50:26.008Z,100225.73
2023-05-02T15:52:35.602Z,100219.42
2023-05-02T15:54:44.562Z,100223.70
2023-05-02T15:56:53.791Z,100223.89
2023-05-02T15:59:03.088Z,100220.27
2023-05-02T16:01:12.470Z,100217.93
2023-05-02T16:03:21.759Z,100226.04
2023-05-02T16:05:31.440Z,100234.70
2023-05-02T16:07:40.651Z,100238.80
2023-05-02T16:09:49.800Z,100236.36
2023-05-02T16:11:59.672Z,100229.30
2023-05-02T16:14:08.984Z,100223.80
2023-05-02T16:16:18.183Z,100215.16
2023-05-02T16:18:28.699Z,100217.66
2023-05-02T16:20:37.840Z,100220.29
2023-05-02T16:22:48.051Z,100227.18
2023-05-02T16:24:57.573Z,100226.24
2023-05-02T16:27:07.166Z,100224.69
2023-05-02T16:29:16.259Z,100223.72
2023-05-02T16:31:25.438Z,100221.94
2023-05-02T16:33:35.432Z,100228.06
2023-05-02T16:35:44.484Z,100231.44
2023-05-02T16:37:53.591Z,100238.42
2023-05-02T16:40:03.206Z,100240.79
2023-05-02T16:42:13.521Z,100241.89
2023-05-02T16:44:22.757Z,100235.44
2023-05-02T16:46:33.051Z,100232.70
2023-05-02T16:48:42.711Z,100229.16
2023-05-02T16:50:52.275Z,100230.64
2023-05-02T16:53:01.344Z,100231.27
2023-05-02T16:55:11.079Z,100224.91
2023-05-02T16:57:21.472Z,100226.48
2023-05-02T16:59:30.777Z,100226.16
2023-05-02T17:01:40.569Z,100228.53
2023-05-02T17:03:49.816Z,100231.92
2023-05-02T17:06:04.146Z,100240.71
2023-05-02T17:08:14.202Z,100239.06
2023-05-02T17:10:24.126Z,100237.50
2023-05-02T17:12:33.975Z,100242.21
2023-05-02T17:14:43.730Z,100249.06
2023-05-02T17:16:53.331Z,100242.52
2023-05-02T17:19:02.556Z,100243.47
2023-05-02T17:21:12.069Z,100242.61
2023-05-02T17:23:21.145Z,100237.09
2023-05-02T17:25:30.280Z,100237.81
2023-05-02T17:27:41.015Z,100227.41
2023-05-02T17:29:50.550Z,100217.54
2023-05-02T17:32:00.913Z,100216.36
2023-05-02T17:34:10.644Z,100229.83
2023-05-02T17:36:19.835Z,100224.52
2023-05-02T17:38:28.917Z,100225.21
2023-05-02T17:40:38.797Z,100232.36
2023-05-02T17:42:48.785Z,100230.35
2023-05-02T17:44:58.278Z,100220.21
2023-05-02T17:47:08.937Z,100226.24
2023-05-02T17:49:17.956Z,100234.07
2023-05-02T17:51:27.138Z,100231.25
2023-05-02T17:53:37.490Z,100224.84
2023-05-02T17:55:46.697Z,100223.25
2023-05-02T17:57:55.948Z,100228.71
2023-05-02T18:00:07.994Z,100230.05
2023-05-02T18:02:18.263Z,100232.84
2023-05-02T18:04:27.680Z,100238.46
2023-05-02T18:06:37.213Z,100235.02
2023-05-02T18:08:46.905Z,100231.95
2023-05-02T18:10:56.491Z,100220.50
2023-05-02T18:13:06.415Z,100214.92
2023-05-02T18:15:15.482Z,100214.81
2023-05-02T18:17:24.832Z,100213.81
2023-05-02T18:19:35.156Z,100214.80
2023-05-02T18:21:45.406Z,100212.62
2023-05-02T18:23:54.686Z,100220.33
2023-05-02T18:26:03.737Z,100229.46
2023-05-02T18:28:13.742Z,100231.11
2023-05-02T18:30:22.995Z,100234.91
2023-05-02T18:32:34.692Z,100238.16
2023-05-02T18:34:44.005Z,100233.97
2023-05-02T18:36:53.276Z,100230.56
2023-05-02T18:39:02.540Z,100219.23
2023-05-02T18:41:11.962Z,100205.08
2023-05-02T18:43:22.304Z,100204.20
2023-05-02T18:45:31.550Z,100199.88
2023-05-02T18:47:40.724Z,100178.34
2023-05-02T18:49:50.745Z,100157.98
2023-05-02T18:51:59.913Z,100166.51
2023-05-02T18:54:09.517Z,100209.84
2023-05-02T18:56:18.626Z,100220.45
2023-05-02T18:58:28.079Z,100203.66
2023-05-02T19:00:37.906Z,100222.73
2023-05-02T19:02:47.070Z,100230.80
2023-05-02T19:04:56.374Z,100230.73
2023-05-02T19:07:05.659Z,100243.88
2023-05-02T19:09:16.037Z,100251.77
2023-05-02T19:11:25.216Z,100233.19
2023-05-02T19:13:35.302Z,100236.98
2023-05-02T19:15:44.662Z,100223.80
2023-05-02T19:17:54.969Z,100223.98
2023-05-02T19:20:05.116Z,100222.18
2023-05-02T19:22:15.308Z,100216.22
2023-05-02T19:24:24.523Z,100218.67
2023-05-02T19:26:33.829Z,100220.39
2023-05-02T19:28:43.558Z,100224.35
2023-05-02T19:30:52.544Z,100228.41
2023-05-02T19:33:01.622Z,100226.81
2023-05-02T19:35:11.970Z,100225.05
2023-05-02T19:37:21.164Z,100222.03
2023-05-02T19:39:31.073Z,100222.28
2023-05-02T19:41:40.576Z,100224.77
2023-05-02T19:43:50.104Z,100220.08
2023-05-02T19:45:59.353Z,100218.77
2023-05-02T19:48:09.619Z,100213.98
2023-05-02T19:50:18.754Z,100216.31
2023-05-02T19:52:28.329Z,100219.34
2023-05-02T19:54:37.640Z,100220.91
2023-05-02T19:56:49.073Z,100217.10
2023-05-02T19:58:58.944Z,100216.54
2023-05-02T20:01:10.807Z,100208.89
2023-05-02T20:03:21.297Z,100212.08
2023-05-02T20:05:30.963Z,100212.52
2023-05-02T20:07:40.487Z,100208.82
2023-05-02T20:09:49.624Z,100209.13
2023-05-02T20:11:59.055Z,100211.80
2023-05-02T20:14:11.332Z,100221.01
2023-05-02T20:16:18.506Z,100224.88
2023-05-02T20:18:28.298Z,100220.94
2023-05-02T20:20:37.411Z,100219.08
2023-05-02T20:22:46.681Z,100220.66
2023-05-02T20:24:55.731Z,100219.88
2023-05-02T20:27:04.926Z,100214.79
2023-05-02T20:29:14.840Z,100215.97
2023-05-02T20:31:23.949Z,100221.78
2023-05-02T20:33:43.727Z,100224.67
2023-05-02T20:35:58.520Z,100222.41
2023-05-02T20:38:07.584Z,100220.15
2023-05-02T20:40:17.717Z,100220.70
2023-05-02T20:42:27.804Z,100217.72
2023-05-02T20:44:38.276Z,100220.80
2023-05-02T20:46:47.780Z,100224.68
2023-05-02T20:48:57.276Z,100231.27
2023-05-02T20:51:06.647Z,100230.58
2023-05-02T20:53:16.124Z,100225.85
2023-05-02T20:55:25.694Z,100229.02
2023-05-02T20:57:34.826Z,100241.14
2023-05-02T20:59:44.705Z,100250.85
2023-05-02T21:01:54.144Z,100257.77
2023-05-02T21:04:04.629Z,100256.02
2023-05-02T21:06:14.159Z,100252.83
2023-05-02T21:08:23.510Z,100253.16
2023-05-02T21:10:33.209Z,100253.00
2023-05-02T21:12:42.543Z,100252.06
2023-05-02T21:14:52.172Z,100254.73
2023-05-02T21:17:01.401Z,100257.48
2023-05-02T21:19:10.875Z,100249.15
2023-05-02T21:21:20.046Z,100245.10
2023-05-02T21:23:29.213Z,100235.98
2023-05-02T21:25:38.367Z,100232.64
2023-05-02T21:27:47.742Z,100237.09
2023-05-02T21:29:57.021Z,100246.09
2023-05-02T21:32:06.447Z,100244.89
2023-05-02T21:34:15.933Z,100241.71
2023-05-02T21:36:25.118Z,100243.13
2023-05-02T21:38:34.240Z,100249.88
2023-05-02T21:40:45.115Z,100255.02
2023-05-02T21:42:54.208Z,100265.10
2023-05-02T21:45:04.239Z,100268.14
2023-05-02T21:47:13.588Z,100273.91
2023-05-02T21:49:22.645Z,100281.19
2023-05-02T21:51:34.642Z,100280.48
2023-05-02T21:53:44.111Z,100278.75
2023-05-02T21:55:54.044Z,100289.92
2023-05-02T21:58:03.206Z,100290.73
2023-05-02T22:00:15.989Z,100276.20
2023-05-02T22:02:25.287Z,100271.22
2023-05-02T22:04:34.446Z,100273.73
2023-05-02T22:06:44.111Z,100270.72
2023-05-02T22:08:53.507Z,100281.09
2023-05-02T22:11:06.237Z,100282.75
2023-05-02T22:13:16.999Z,100280.45
2023-05-02T22:15:26.992Z,100276.27
2023-05-02T22:17:36.354Z,100277.16
2023-05-02T22:19:46.233Z,100281.83
2023-05-02T22:21:56.894Z,100283.95
2023-05-02T22:24:06.927Z,100285.89
2023-05-02T22:26:16.405Z,100288.20
2023-05-02T22:28:25.515Z,100288.98
2023-05-02T22:30:34.799Z,100293.77
2023-05-02T22:32:44.491Z,100296.39
2023-05-02T22:34:53.691Z,100298.91
2023-05-02T22:37:03.066Z,100301.05
2023-05-02T22:39:15.911Z,100299.08
2023-05-02T22:41:25.118Z,100299.19
2023-05-02T22:43:34.626Z,100303.27
2023-05-02T22:45:44.292Z,100308.13
2023-05-02T22:47:53.546Z,100318.45
2023-05-02T22:50:05.618Z,100320.03
2023-05-02T22:52:15.319Z,100321.27
2023-05-02T22:54:24.520Z,100330.55
2023-05-02T22:56:33.647Z,100329.48
2023-05-02T22:58:43.054Z,100335.19
2023-05-02T23:00:52.624Z,100337.64
2023-05-02T23:03:01.941Z,100343.14
2023-05-02T23:05:12.195Z,100349.48
2023-05-02T23:07:21.186Z,100354.02
2023-05-02T23:09:30.234Z,100358.95
2023-05-02T23:11:39.466Z,100357.17
2023-05-02T23:13:48.732Z,100356.48
2023-05-02T23:15:58.850Z,100356.30
2023-05-02T23:18:08.456Z,100352.16
2023-05-02T23:20:19.915Z,100351.54
2023-05-02T23:22:28.960Z,100353.41
2023-05-02T23:24:38.238Z,100349.85
2023-05-02T23:26:47.513Z,100349.98
2023-05-02T23:28:56.788Z,100352.94
2023-05-02T23:31:07.173Z,100359.17
2023-05-02T23:33:16.896Z,100363.54
2023-05-02T23:35:26.065Z,100367.49
2023-05-02T23:37:35.569Z,100359.86
2023-05-02T23:39:44.912Z,100365.78
2023-05-02T23:41:54.123Z,100371.77
2023-05-02T23:44:03.705Z,100378.17
2023-05-02T23:46:13.716Z,100383.50
2023-05-02T23:48:23.761Z,100391.74
2023-05-02T23:50:32.910Z,100389.77
2023-05-02T23:52:42.044Z,100391.70
2023-05-02T23:54:52.620Z,100391.54
2023-05-02T23:57:01.739Z,100391.73
2023-05-02T23:59:10.989Z,100388.52
